sensor_id;sensor_type;location;lat;lon;timestamp;P1;durP1;ratioP1;P2;durP2;ratioP2
72275;SDS011;61204;49.980;8.358;2024-01-30T00:00:22;38.75;;;21.95;;
72275;SDS011;61204;49.980;8.358;2024-01-30T00:02:48;36.67;;;22.25;;
72275;SDS011;61204;49.980;8.358;2024-01-30T00:05:18;39.67;;;22.00;;
72275;SDS011;61204;49.980;8.358;2024-01-30T00:07:43;35.50;;;21.30;;
72275;SDS011;61204;49.980;8.358;2024-01-30T00:10:09;36.25;;;20.45;;
72275;SDS011;61204;49.980;8.358;2024-01-30T00:12:35;33.33;;;20.08;;
72275;SDS011;61204;49.980;8.358;2024-01-30T00:15:00;37.28;;;20.35;;
72275;SDS011;61204;49.980;8.358;2024-01-30T00:17:30;35.42;;;20.90;;
72275;SDS011;61204;49.980;8.358;2024-01-30T00:19:55;42.45;;;21.23;;
72275;SDS011;61204;49.980;8.358;2024-01-30T00:22:21;38.15;;;20.48;;
72275;SDS011;61204;49.980;8.358;2024-01-30T00:24:47;37.50;;;21.60;;
72275;SDS011;61204;49.980;8.358;2024-01-30T00:27:12;34.63;;;20.83;;
72275;SDS011;61204;49.980;8.358;2024-01-30T00:29:41;30.42;;;19.08;;
72275;SDS011;61204;49.980;8.358;2024-01-30T00:32:06;28.65;;;18.17;;
72275;SDS011;61204;49.980;8.358;2024-01-30T00:34:32;38.30;;;20.05;;
72275;SDS011;61204;49.980;8.358;2024-01-30T00:37:00;32.45;;;19.30;;
72275;SDS011;61204;49.980;8.358;2024-01-30T00:39:25;33.08;;;19.77;;
72275;SDS011;61204;49.980;8.358;2024-01-30T00:41:53;34.47;;;18.23;;
72275;SDS011;61204;49.980;8.358;2024-01-30T00:44:21;31.20;;;18.02;;
72275;SDS011;61204;49.980;8.358;2024-01-30T00:46:47;31.27;;;18.20;;
72275;SDS011;61204;49.980;8.358;2024-01-30T00:49:15;31.85;;;18.52;;
72275;SDS011;61204;49.980;8.358;2024-01-30T00:51:40;33.08;;;19.70;;
72275;SDS011;61204;49.980;8.358;2024-01-30T00:54:06;30.02;;;19.05;;
72275;SDS011;61204;49.980;8.358;2024-01-30T00:56:31;33.38;;;19.90;;
72275;SDS011;61204;49.980;8.358;2024-01-30T00:58:58;37.05;;;19.42;;
72275;SDS011;61204;49.980;8.358;2024-01-30T01:01:24;36.90;;;18.92;;
72275;SDS011;61204;49.980;8.358;2024-01-30T01:03:49;47.17;;;23.20;;
72275;SDS011;61204;49.980;8.358;2024-01-30T01:06:17;39.08;;;22.45;;
72275;SDS011;61204;49.980;8.358;2024-01-30T01:08:45;42.80;;;21.15;;
72275;SDS011;61204;49.980;8.358;2024-01-30T01:11:10;34.50;;;20.48;;
72275;SDS011;61204;49.980;8.358;2024-01-30T01:13:38;32.08;;;19.42;;
72275;SDS011;61204;49.980;8.358;2024-01-30T01:16:06;29.50;;;18.42;;
72275;SDS011;61204;49.980;8.358;2024-01-30T01:18:32;28.73;;;19.02;;
72275;SDS011;61204;49.980;8.358;2024-01-30T01:21:00;37.58;;;20.65;;
72275;SDS011;61204;49.980;8.358;2024-01-30T01:23:26;37.28;;;21.02;;
72275;SDS011;61204;49.980;8.358;2024-01-30T01:25:51;36.92;;;21.23;;
72275;SDS011;61204;49.980;8.358;2024-01-30T01:28:17;29.17;;;18.98;;
72275;SDS011;61204;49.980;8.358;2024-01-30T01:30:42;32.53;;;19.20;;
72275;SDS011;61204;49.980;8.358;2024-01-30T01:33:11;30.65;;;18.17;;
72275;SDS011;61204;49.980;8.358;2024-01-30T01:35:39;26.77;;;17.55;;
72275;SDS011;61204;49.980;8.358;2024-01-30T01:38:05;28.85;;;18.10;;
72275;SDS011;61204;49.980;8.358;2024-01-30T01:40:30;37.47;;;20.95;;
72275;SDS011;61204;49.980;8.358;2024-01-30T01:42:56;32.22;;;18.90;;
72275;SDS011;61204;49.980;8.358;2024-01-30T01:45:22;33.97;;;20.60;;
72275;SDS011;61204;49.980;8.358;2024-01-30T01:47:50;31.75;;;19.27;;
72275;SDS011;61204;49.980;8.358;2024-01-30T01:50:17;33.00;;;19.25;;
72275;SDS011;61204;49.980;8.358;2024-01-30T01:52:48;34.85;;;18.15;;
72275;SDS011;61204;49.980;8.358;2024-01-30T01:55:16;28.20;;;18.05;;
72275;SDS011;61204;49.980;8.358;2024-01-30T01:57:51;33.15;;;19.05;;
72275;SDS011;61204;49.980;8.358;2024-01-30T02:00:19;30.20;;;18.25;;
72275;SDS011;61204;49.980;8.358;2024-01-30T02:02:45;33.65;;;18.98;;
72275;SDS011;61204;49.980;8.358;2024-01-30T02:05:15;33.33;;;18.65;;
72275;SDS011;61204;49.980;8.358;2024-01-30T02:07:41;30.92;;;18.05;;
72275;SDS011;61204;49.980;8.358;2024-01-30T02:10:10;28.20;;;18.67;;
72275;SDS011;61204;49.980;8.358;2024-01-30T02:12:37;31.70;;;19.42;;
72275;SDS011;61204;49.980;8.358;2024-01-30T02:15:02;30.58;;;18.80;;
72275;SDS011;61204;49.980;8.358;2024-01-30T02:17:30;31.30;;;18.30;;
72275;SDS011;61204;49.980;8.358;2024-01-30T02:19:56;28.60;;;18.52;;
72275;SDS011;61204;49.980;8.358;2024-01-30T02:22:22;30.90;;;18.42;;
72275;SDS011;61204;49.980;8.358;2024-01-30T02:24:49;32.47;;;18.58;;
72275;SDS011;61204;49.980;8.358;2024-01-30T02:27:15;31.35;;;20.02;;
72275;SDS011;61204;49.980;8.358;2024-01-30T02:29:43;31.75;;;18.30;;
72275;SDS011;61204;49.980;8.358;2024-01-30T02:32:08;104.82;;;25.23;;
72275;SDS011;61204;49.980;8.358;2024-01-30T02:34:36;53.97;;;19.77;;
72275;SDS011;61204;49.980;8.358;2024-01-30T02:37:04;32.50;;;20.25;;
72275;SDS011;61204;49.980;8.358;2024-01-30T02:39:29;35.33;;;20.00;;
72275;SDS011;61204;49.980;8.358;2024-01-30T02:41:55;29.15;;;19.08;;
72275;SDS011;61204;49.980;8.358;2024-01-30T02:44:21;37.63;;;21.00;;
72275;SDS011;61204;49.980;8.358;2024-01-30T02:46:46;39.10;;;21.42;;
72275;SDS011;61204;49.980;8.358;2024-01-30T02:49:14;33.35;;;20.90;;
72275;SDS011;61204;49.980;8.358;2024-01-30T02:51:40;33.15;;;20.02;;
72275;SDS011;61204;49.980;8.358;2024-01-30T02:54:06;31.60;;;18.45;;
72275;SDS011;61204;49.980;8.358;2024-01-30T02:56:31;35.22;;;20.65;;
72275;SDS011;61204;49.980;8.358;2024-01-30T02:58:57;31.58;;;19.15;;
72275;SDS011;61204;49.980;8.358;2024-01-30T03:01:22;31.27;;;18.58;;
72275;SDS011;61204;49.980;8.358;2024-01-30T03:03:49;30.92;;;18.65;;
72275;SDS011;61204;49.980;8.358;2024-01-30T03:06:15;34.53;;;19.45;;
72275;SDS011;61204;49.980;8.358;2024-01-30T03:08:42;34.63;;;20.50;;
72275;SDS011;61204;49.980;8.358;2024-01-30T03:11:10;37.22;;;19.83;;
72275;SDS011;61204;49.980;8.358;2024-01-30T03:13:36;30.20;;;18.50;;
72275;SDS011;61204;49.980;8.358;2024-01-30T03:16:04;30.70;;;20.17;;
72275;SDS011;61204;49.980;8.358;2024-01-30T03:18:30;30.73;;;18.40;;
72275;SDS011;61204;49.980;8.358;2024-01-30T03:20:55;31.10;;;18.55;;
72275;SDS011;61204;49.980;8.358;2024-01-30T03:23:23;33.47;;;19.52;;
72275;SDS011;61204;49.980;8.358;2024-01-30T03:25:49;27.98;;;17.75;;
72275;SDS011;61204;49.980;8.358;2024-01-30T03:28:15;35.92;;;19.17;;
72275;SDS011;61204;49.980;8.358;2024-01-30T03:30:40;31.75;;;18.35;;
72275;SDS011;61204;49.980;8.358;2024-01-30T03:33:06;30.77;;;20.00;;
72275;SDS011;61204;49.980;8.358;2024-01-30T03:35:33;29.17;;;17.83;;
72275;SDS011;61204;49.980;8.358;2024-01-30T03:37:59;31.02;;;18.98;;
72275;SDS011;61204;49.980;8.358;2024-01-30T03:40:24;33.78;;;18.65;;
72275;SDS011;61204;49.980;8.358;2024-01-30T03:42:52;26.10;;;17.55;;
72275;SDS011;61204;49.980;8.358;2024-01-30T03:45:18;31.58;;;18.42;;
72275;SDS011;61204;49.980;8.358;2024-01-30T03:47:44;27.55;;;17.33;;
72275;SDS011;61204;49.980;8.358;2024-01-30T03:50:10;33.00;;;18.02;;
72275;SDS011;61204;49.980;8.358;2024-01-30T03:52:38;31.75;;;19.73;;
72275;SDS011;61204;49.980;8.358;2024-01-30T03:55:04;30.13;;;19.85;;
72275;SDS011;61204;49.980;8.358;2024-01-30T03:57:32;45.10;;;21.30;;
72275;SDS011;61204;49.980;8.358;2024-01-30T03:59:58;44.28;;;21.60;;
72275;SDS011;61204;49.980;8.358;2024-01-30T04:02:23;58.60;;;23.55;;
72275;SDS011;61204;49.980;8.358;2024-01-30T04:04:49;35.95;;;20.88;;
72275;SDS011;61204;49.980;8.358;2024-01-30T04:07:15;40.90;;;22.63;;
72275;SDS011;61204;49.980;8.358;2024-01-30T04:09:40;39.65;;;21.13;;
72275;SDS011;61204;49.980;8.358;2024-01-30T04:12:06;36.25;;;20.80;;
72275;SDS011;61204;49.980;8.358;2024-01-30T04:14:34;30.92;;;19.75;;
72275;SDS011;61204;49.980;8.358;2024-01-30T04:17:00;31.08;;;20.08;;
72275;SDS011;61204;49.980;8.358;2024-01-30T04:19:26;35.55;;;20.40;;
72275;SDS011;61204;49.980;8.358;2024-01-30T04:21:51;35.47;;;19.92;;
72275;SDS011;61204;49.980;8.358;2024-01-30T04:24:17;31.88;;;20.13;;
72275;SDS011;61204;49.980;8.358;2024-01-30T04:26:43;39.20;;;20.35;;
72275;SDS011;61204;49.980;8.358;2024-01-30T04:29:11;38.40;;;20.50;;
72275;SDS011;61204;49.980;8.358;2024-01-30T04:31:39;36.33;;;19.40;;
72275;SDS011;61204;49.980;8.358;2024-01-30T04:34:05;30.75;;;18.98;;
72275;SDS011;61204;49.980;8.358;2024-01-30T04:36:32;42.60;;;20.83;;
72275;SDS011;61204;49.980;8.358;2024-01-30T04:38:58;45.65;;;23.98;;
72275;SDS011;61204;49.980;8.358;2024-01-30T04:41:23;54.15;;;24.52;;
72275;SDS011;61204;49.980;8.358;2024-01-30T04:43:51;63.35;;;22.92;;
72275;SDS011;61204;49.980;8.358;2024-01-30T04:46:21;74.80;;;24.98;;
72275;SDS011;61204;49.980;8.358;2024-01-30T04:48:47;84.35;;;24.48;;
72275;SDS011;61204;49.980;8.358;2024-01-30T04:51:12;57.05;;;22.67;;
72275;SDS011;61204;49.980;8.358;2024-01-30T04:53:38;48.80;;;23.05;;
72275;SDS011;61204;49.980;8.358;2024-01-30T04:56:05;128.02;;;30.70;;
72275;SDS011;61204;49.980;8.358;2024-01-30T04:58:33;41.78;;;22.20;;
72275;SDS011;61204;49.980;8.358;2024-01-30T05:00:59;51.28;;;23.85;;
72275;SDS011;61204;49.980;8.358;2024-01-30T05:03:26;38.65;;;21.75;;
72275;SDS011;61204;49.980;8.358;2024-01-30T05:05:54;43.17;;;22.75;;
72275;SDS011;61204;49.980;8.358;2024-01-30T05:08:22;35.67;;;20.98;;
72275;SDS011;61204;49.980;8.358;2024-01-30T05:10:50;51.20;;;21.73;;
72275;SDS011;61204;49.980;8.358;2024-01-30T05:13:16;53.95;;;21.38;;
72275;SDS011;61204;49.980;8.358;2024-01-30T05:15:42;42.47;;;20.40;;
72275;SDS011;61204;49.980;8.358;2024-01-30T05:18:07;37.10;;;18.63;;
72275;SDS011;61204;49.980;8.358;2024-01-30T05:20:33;41.40;;;20.17;;
72275;SDS011;61204;49.980;8.358;2024-01-30T05:22:58;29.40;;;18.45;;
72275;SDS011;61204;49.980;8.358;2024-01-30T05:25:24;38.25;;;19.13;;
72275;SDS011;61204;49.980;8.358;2024-01-30T05:27:50;42.10;;;19.33;;
72275;SDS011;61204;49.980;8.358;2024-01-30T05:30:17;40.10;;;18.08;;
72275;SDS011;61204;49.980;8.358;2024-01-30T05:32:45;30.08;;;19.50;;
72275;SDS011;61204;49.980;8.358;2024-01-30T05:35:11;35.30;;;19.67;;
72275;SDS011;61204;49.980;8.358;2024-01-30T05:37:37;43.00;;;19.73;;
72275;SDS011;61204;49.980;8.358;2024-01-30T05:40:02;44.45;;;20.88;;
72275;SDS011;61204;49.980;8.358;2024-01-30T05:42:29;33.17;;;20.30;;
72275;SDS011;61204;49.980;8.358;2024-01-30T05:44:55;34.55;;;19.98;;
72275;SDS011;61204;49.980;8.358;2024-01-30T05:47:20;32.85;;;19.40;;
72275;SDS011;61204;49.980;8.358;2024-01-30T05:49:46;36.40;;;19.73;;
72275;SDS011;61204;49.980;8.358;2024-01-30T05:52:11;46.45;;;20.85;;
72275;SDS011;61204;49.980;8.358;2024-01-30T05:54:40;35.03;;;18.73;;
72275;SDS011;61204;49.980;8.358;2024-01-30T05:57:05;36.75;;;18.40;;
72275;SDS011;61204;49.980;8.358;2024-01-30T05:59:31;59.63;;;19.95;;
72275;SDS011;61204;49.980;8.358;2024-01-30T06:01:57;44.75;;;21.85;;
72275;SDS011;61204;49.980;8.358;2024-01-30T06:04:23;36.15;;;19.23;;
72275;SDS011;61204;49.980;8.358;2024-01-30T06:06:48;48.05;;;20.15;;
72275;SDS011;61204;49.980;8.358;2024-01-30T06:09:16;43.60;;;21.55;;
72275;SDS011;61204;49.980;8.358;2024-01-30T06:11:42;45.38;;;20.70;;
72275;SDS011;61204;49.980;8.358;2024-01-30T06:14:07;36.47;;;20.38;;
72275;SDS011;61204;49.980;8.358;2024-01-30T06:16:33;202.18;;;33.33;;
72275;SDS011;61204;49.980;8.358;2024-01-30T06:18:59;60.05;;;21.92;;
72275;SDS011;61204;49.980;8.358;2024-01-30T06:21:25;109.85;;;27.50;;
72275;SDS011;61204;49.980;8.358;2024-01-30T06:23:52;52.83;;;20.08;;
72275;SDS011;61204;49.980;8.358;2024-01-30T06:26:18;53.50;;;21.23;;
72275;SDS011;61204;49.980;8.358;2024-01-30T06:28:48;168.02;;;30.40;;
72275;SDS011;61204;49.980;8.358;2024-01-30T06:31:14;68.47;;;22.35;;
72275;SDS011;61204;49.980;8.358;2024-01-30T06:33:39;225.38;;;33.75;;
72275;SDS011;61204;49.980;8.358;2024-01-30T06:36:07;62.88;;;23.55;;
72275;SDS011;61204;49.980;8.358;2024-01-30T06:38:33;72.57;;;30.73;;
72275;SDS011;61204;49.980;8.358;2024-01-30T06:40:58;113.35;;;39.10;;
72275;SDS011;61204;49.980;8.358;2024-01-30T06:43:24;51.10;;;24.63;;
72275;SDS011;61204;49.980;8.358;2024-01-30T06:45:51;83.47;;;24.75;;
72275;SDS011;61204;49.980;8.358;2024-01-30T06:48:17;70.70;;;25.05;;
72275;SDS011;61204;49.980;8.358;2024-01-30T06:50:45;69.35;;;22.75;;
72275;SDS011;61204;49.980;8.358;2024-01-30T06:53:11;62.97;;;24.00;;
72275;SDS011;61204;49.980;8.358;2024-01-30T06:55:36;90.22;;;27.50;;
72275;SDS011;61204;49.980;8.358;2024-01-30T06:58:02;85.05;;;26.77;;
72275;SDS011;61204;49.980;8.358;2024-01-30T07:00:30;95.38;;;26.52;;
72275;SDS011;61204;49.980;8.358;2024-01-30T07:02:59;52.15;;;24.50;;
72275;SDS011;61204;49.980;8.358;2024-01-30T07:05:27;72.68;;;25.05;;
72275;SDS011;61204;49.980;8.358;2024-01-30T07:07:55;62.03;;;25.60;;
72275;SDS011;61204;49.980;8.358;2024-01-30T07:10:23;94.82;;;26.25;;
72275;SDS011;61204;49.980;8.358;2024-01-30T07:12:48;59.97;;;24.60;;
72275;SDS011;61204;49.980;8.358;2024-01-30T07:15:14;87.03;;;25.55;;
72275;SDS011;61204;49.980;8.358;2024-01-30T07:17:46;90.05;;;27.13;;
72275;SDS011;61204;49.980;8.358;2024-01-30T07:20:14;107.53;;;27.95;;
72275;SDS011;61204;49.980;8.358;2024-01-30T07:22:40;83.63;;;26.77;;
72275;SDS011;61204;49.980;8.358;2024-01-30T07:25:08;251.10;;;40.95;;
72275;SDS011;61204;49.980;8.358;2024-01-30T07:27:34;218.27;;;35.67;;
72275;SDS011;61204;49.980;8.358;2024-01-30T07:29:59;189.27;;;35.33;;
72275;SDS011;61204;49.980;8.358;2024-01-30T07:32:25;263.83;;;41.00;;
72275;SDS011;61204;49.980;8.358;2024-01-30T07:34:50;74.88;;;26.92;;
72275;SDS011;61204;49.980;8.358;2024-01-30T07:37:16;220.82;;;39.67;;
72275;SDS011;61204;49.980;8.358;2024-01-30T07:39:41;89.05;;;29.13;;
72275;SDS011;61204;49.980;8.358;2024-01-30T07:42:07;84.88;;;26.30;;
72275;SDS011;61204;49.980;8.358;2024-01-30T07:44:33;393.85;;;51.65;;
72275;SDS011;61204;49.980;8.358;2024-01-30T07:46:59;97.97;;;28.30;;
72275;SDS011;61204;49.980;8.358;2024-01-30T07:49:25;246.15;;;39.38;;
72275;SDS011;61204;49.980;8.358;2024-01-30T07:51:50;75.07;;;27.80;;
72275;SDS011;61204;49.980;8.358;2024-01-30T07:54:18;88.88;;;28.77;;
72275;SDS011;61204;49.980;8.358;2024-01-30T07:56:44;117.97;;;29.88;;
72275;SDS011;61204;49.980;8.358;2024-01-30T07:59:10;68.65;;;26.25;;
72275;SDS011;61204;49.980;8.358;2024-01-30T08:01:39;76.57;;;26.80;;
72275;SDS011;61204;49.980;8.358;2024-01-30T08:04:05;64.38;;;26.33;;
72275;SDS011;61204;49.980;8.358;2024-01-30T08:06:30;175.05;;;35.42;;
72275;SDS011;61204;49.980;8.358;2024-01-30T08:08:56;72.65;;;25.92;;
72275;SDS011;61204;49.980;8.358;2024-01-30T08:11:26;67.95;;;28.45;;
72275;SDS011;61204;49.980;8.358;2024-01-30T08:13:54;53.47;;;27.60;;
72275;SDS011;61204;49.980;8.358;2024-01-30T08:16:22;81.03;;;27.48;;
72275;SDS011;61204;49.980;8.358;2024-01-30T08:18:48;53.42;;;25.33;;
72275;SDS011;61204;49.980;8.358;2024-01-30T08:21:13;459.27;;;57.10;;
72275;SDS011;61204;49.980;8.358;2024-01-30T08:23:39;83.60;;;31.15;;
72275;SDS011;61204;49.980;8.358;2024-01-30T08:26:05;66.07;;;29.60;;
72275;SDS011;61204;49.980;8.358;2024-01-30T08:28:30;104.80;;;31.33;;
72275;SDS011;61204;49.980;8.358;2024-01-30T08:31:01;63.92;;;28.95;;
72275;SDS011;61204;49.980;8.358;2024-01-30T08:33:26;69.60;;;28.77;;
72275;SDS011;61204;49.980;8.358;2024-01-30T08:35:52;60.03;;;28.23;;
72275;SDS011;61204;49.980;8.358;2024-01-30T08:38:18;55.42;;;26.80;;
72275;SDS011;61204;49.980;8.358;2024-01-30T08:40:43;74.75;;;27.85;;
72275;SDS011;61204;49.980;8.358;2024-01-30T08:43:09;56.03;;;27.88;;
72275;SDS011;61204;49.980;8.358;2024-01-30T08:45:35;95.45;;;28.83;;
72275;SDS011;61204;49.980;8.358;2024-01-30T08:48:00;47.05;;;25.73;;
72275;SDS011;61204;49.980;8.358;2024-01-30T08:50:26;54.90;;;25.80;;
72275;SDS011;61204;49.980;8.358;2024-01-30T08:52:52;52.65;;;27.02;;
72275;SDS011;61204;49.980;8.358;2024-01-30T08:55:20;56.83;;;28.60;;
72275;SDS011;61204;49.980;8.358;2024-01-30T08:57:45;48.15;;;28.48;;
72275;SDS011;61204;49.980;8.358;2024-01-30T09:00:11;40.42;;;26.02;;
72275;SDS011;61204;49.980;8.358;2024-01-30T09:02:37;43.17;;;26.05;;
72275;SDS011;61204;49.980;8.358;2024-01-30T09:05:03;47.55;;;26.67;;
72275;SDS011;61204;49.980;8.358;2024-01-30T09:07:29;49.63;;;25.83;;
72275;SDS011;61204;49.980;8.358;2024-01-30T09:09:57;47.42;;;25.58;;
72275;SDS011;61204;49.980;8.358;2024-01-30T09:12:22;41.58;;;23.65;;
72275;SDS011;61204;49.980;8.358;2024-01-30T09:14:48;42.58;;;25.13;;
72275;SDS011;61204;49.980;8.358;2024-01-30T09:17:16;42.08;;;25.08;;
72275;SDS011;61204;49.980;8.358;2024-01-30T09:19:42;44.08;;;26.05;;
72275;SDS011;61204;49.980;8.358;2024-01-30T09:22:10;35.75;;;23.23;;
72275;SDS011;61204;49.980;8.358;2024-01-30T09:24:36;36.85;;;22.08;;
72275;SDS011;61204;49.980;8.358;2024-01-30T09:27:01;35.63;;;22.88;;
72275;SDS011;61204;49.980;8.358;2024-01-30T09:29:27;40.45;;;23.08;;
72275;SDS011;61204;49.980;8.358;2024-01-30T09:31:55;32.95;;;21.00;;
72275;SDS011;61204;49.980;8.358;2024-01-30T09:34:20;41.15;;;24.52;;
72275;SDS011;61204;49.980;8.358;2024-01-30T09:36:46;34.13;;;22.20;;
72275;SDS011;61204;49.980;8.358;2024-01-30T09:39:11;39.95;;;23.58;;
72275;SDS011;61204;49.980;8.358;2024-01-30T09:41:49;36.92;;;23.10;;
72275;SDS011;61204;49.980;8.358;2024-01-30T09:44:30;40.22;;;24.63;;
72275;SDS011;61204;49.980;8.358;2024-01-30T09:46:56;30.35;;;20.95;;
72275;SDS011;61204;49.980;8.358;2024-01-30T09:49:28;39.10;;;23.38;;
72275;SDS011;61204;49.980;8.358;2024-01-30T09:51:58;34.30;;;22.98;;
72275;SDS011;61204;49.980;8.358;2024-01-30T09:54:24;34.35;;;22.40;;
72275;SDS011;61204;49.980;8.358;2024-01-30T09:56:55;34.60;;;22.92;;
72275;SDS011;61204;49.980;8.358;2024-01-30T09:59:20;35.33;;;23.38;;
72275;SDS011;61204;49.980;8.358;2024-01-30T10:01:49;38.60;;;24.20;;
72275;SDS011;61204;49.980;8.358;2024-01-30T10:04:16;40.75;;;24.65;;
72275;SDS011;61204;49.980;8.358;2024-01-30T10:06:42;33.78;;;23.38;;
72275;SDS011;61204;49.980;8.358;2024-01-30T10:09:08;36.67;;;22.77;;
72275;SDS011;61204;49.980;8.358;2024-01-30T10:11:34;33.28;;;22.60;;
72275;SDS011;61204;49.980;8.358;2024-01-30T10:14:02;33.38;;;22.45;;
72275;SDS011;61204;49.980;8.358;2024-01-30T10:16:29;34.97;;;22.90;;
72275;SDS011;61204;49.980;8.358;2024-01-30T10:18:55;36.40;;;22.23;;
72275;SDS011;61204;49.980;8.358;2024-01-30T10:21:21;32.58;;;21.52;;
72275;SDS011;61204;49.980;8.358;2024-01-30T10:23:49;30.10;;;20.17;;
72275;SDS011;61204;49.980;8.358;2024-01-30T10:26:18;34.03;;;21.02;;
72275;SDS011;61204;49.980;8.358;2024-01-30T10:28:44;29.33;;;21.10;;
72275;SDS011;61204;49.980;8.358;2024-01-30T10:31:16;31.65;;;21.27;;
72275;SDS011;61204;49.980;8.358;2024-01-30T10:33:46;34.95;;;21.90;;
72275;SDS011;61204;49.980;8.358;2024-01-30T10:36:16;32.38;;;21.13;;
72275;SDS011;61204;49.980;8.358;2024-01-30T10:38:43;30.35;;;19.90;;
72275;SDS011;61204;49.980;8.358;2024-01-30T10:41:11;28.08;;;19.20;;
72275;SDS011;61204;49.980;8.358;2024-01-30T10:43:45;31.27;;;18.33;;
72275;SDS011;61204;49.980;8.358;2024-01-30T10:46:30;27.52;;;19.58;;
72275;SDS011;61204;49.980;8.358;2024-01-30T10:49:03;27.00;;;18.42;;
72275;SDS011;61204;49.980;8.358;2024-01-30T10:51:31;25.92;;;18.35;;
72275;SDS011;61204;49.980;8.358;2024-01-30T10:53:59;33.00;;;20.48;;
72275;SDS011;61204;49.980;8.358;2024-01-30T10:56:27;27.25;;;18.80;;
72275;SDS011;61204;49.980;8.358;2024-01-30T10:58:54;22.48;;;16.10;;
72275;SDS011;61204;49.980;8.358;2024-01-30T11:01:21;28.27;;;18.50;;
72275;SDS011;61204;49.980;8.358;2024-01-30T11:03:53;24.50;;;17.73;;
72275;SDS011;61204;49.980;8.358;2024-01-30T11:06:23;26.42;;;17.00;;
72275;SDS011;61204;49.980;8.358;2024-01-30T11:09:04;26.50;;;16.80;;
72275;SDS011;61204;49.980;8.358;2024-01-30T11:11:56;26.35;;;16.38;;
72275;SDS011;61204;49.980;8.358;2024-01-30T11:14:27;25.10;;;18.08;;
72275;SDS011;61204;49.980;8.358;2024-01-30T11:16:58;27.42;;;17.60;;
72275;SDS011;61204;49.980;8.358;2024-01-30T11:19:25;25.20;;;17.58;;
72275;SDS011;61204;49.980;8.358;2024-01-30T11:21:52;25.65;;;16.27;;
72275;SDS011;61204;49.980;8.358;2024-01-30T11:24:22;20.80;;;15.25;;
72275;SDS011;61204;49.980;8.358;2024-01-30T11:26:54;22.13;;;15.70;;
72275;SDS011;61204;49.980;8.358;2024-01-30T11:29:27;22.73;;;14.60;;
72275;SDS011;61204;49.980;8.358;2024-01-30T11:31:57;21.23;;;14.57;;
72275;SDS011;61204;49.980;8.358;2024-01-30T11:34:26;20.58;;;15.57;;
72275;SDS011;61204;49.980;8.358;2024-01-30T11:36:55;24.40;;;14.95;;
72275;SDS011;61204;49.980;8.358;2024-01-30T11:39:24;24.48;;;14.63;;
72275;SDS011;61204;49.980;8.358;2024-01-30T11:41:52;19.25;;;14.60;;
72275;SDS011;61204;49.980;8.358;2024-01-30T11:44:19;20.58;;;14.27;;
72275;SDS011;61204;49.980;8.358;2024-01-30T11:46:47;22.60;;;15.07;;
72275;SDS011;61204;49.980;8.358;2024-01-30T11:49:17;20.27;;;15.00;;
72275;SDS011;61204;49.980;8.358;2024-01-30T11:51:45;19.48;;;13.90;;
72275;SDS011;61204;49.980;8.358;2024-01-30T11:54:13;19.63;;;12.80;;
72275;SDS011;61204;49.980;8.358;2024-01-30T11:56:40;20.73;;;14.23;;
72275;SDS011;61204;49.980;8.358;2024-01-30T11:59:09;19.25;;;13.93;;
72275;SDS011;61204;49.980;8.358;2024-01-30T12:01:34;20.38;;;13.25;;
72275;SDS011;61204;49.980;8.358;2024-01-30T12:04:01;21.15;;;13.35;;
72275;SDS011;61204;49.980;8.358;2024-01-30T12:06:27;17.98;;;12.88;;
72275;SDS011;61204;49.980;8.358;2024-01-30T12:08:57;18.92;;;13.27;;
72275;SDS011;61204;49.980;8.358;2024-01-30T12:11:26;19.80;;;13.57;;
72275;SDS011;61204;49.980;8.358;2024-01-30T12:13:55;18.55;;;13.57;;
72275;SDS011;61204;49.980;8.358;2024-01-30T12:16:21;17.08;;;12.55;;
72275;SDS011;61204;49.980;8.358;2024-01-30T12:18:48;20.27;;;13.88;;
72275;SDS011;61204;49.980;8.358;2024-01-30T12:21:17;15.80;;;13.07;;
72275;SDS011;61204;49.980;8.358;2024-01-30T12:23:43;17.75;;;12.65;;
72275;SDS011;61204;49.980;8.358;2024-01-30T12:26:10;16.67;;;11.93;;
72275;SDS011;61204;49.980;8.358;2024-01-30T12:28:36;16.42;;;13.02;;
72275;SDS011;61204;49.980;8.358;2024-01-30T12:31:02;15.70;;;11.93;;
72275;SDS011;61204;49.980;8.358;2024-01-30T12:33:29;18.17;;;12.32;;
72275;SDS011;61204;49.980;8.358;2024-01-30T12:35:56;23.45;;;13.57;;
72275;SDS011;61204;49.980;8.358;2024-01-30T12:38:27;16.40;;;12.82;;
72275;SDS011;61204;49.980;8.358;2024-01-30T12:40:55;19.83;;;12.10;;
72275;SDS011;61204;49.980;8.358;2024-01-30T12:43:21;20.83;;;13.50;;
72275;SDS011;61204;49.980;8.358;2024-01-30T12:45:50;21.65;;;12.45;;
72275;SDS011;61204;49.980;8.358;2024-01-30T12:48:15;17.08;;;12.05;;
72275;SDS011;61204;49.980;8.358;2024-01-30T12:50:41;16.52;;;12.43;;
72275;SDS011;61204;49.980;8.358;2024-01-30T12:53:07;16.42;;;12.65;;
72275;SDS011;61204;49.980;8.358;2024-01-30T12:55:34;18.75;;;12.02;;
72275;SDS011;61204;49.980;8.358;2024-01-30T12:58:00;18.15;;;11.77;;
72275;SDS011;61204;49.980;8.358;2024-01-30T13:00:26;16.15;;;12.35;;
72275;SDS011;61204;49.980;8.358;2024-01-30T13:02:52;16.30;;;11.75;;
72275;SDS011;61204;49.980;8.358;2024-01-30T13:05:17;20.08;;;12.90;;
72275;SDS011;61204;49.980;8.358;2024-01-30T13:07:46;16.25;;;12.27;;
72275;SDS011;61204;49.980;8.358;2024-01-30T13:10:11;18.02;;;12.45;;
72275;SDS011;61204;49.980;8.358;2024-01-30T13:12:37;17.38;;;12.30;;
72275;SDS011;61204;49.980;8.358;2024-01-30T13:15:06;17.05;;;12.38;;
72275;SDS011;61204;49.980;8.358;2024-01-30T13:17:31;17.17;;;11.45;;
72275;SDS011;61204;49.980;8.358;2024-01-30T13:19:58;15.98;;;11.80;;
72275;SDS011;61204;49.980;8.358;2024-01-30T13:22:23;16.75;;;11.73;;
72275;SDS011;61204;49.980;8.358;2024-01-30T13:24:49;19.75;;;11.60;;
72275;SDS011;61204;49.980;8.358;2024-01-30T13:27:15;17.27;;;11.73;;
72275;SDS011;61204;49.980;8.358;2024-01-30T13:29:42;13.68;;;11.05;;
72275;SDS011;61204;49.980;8.358;2024-01-30T13:32:07;14.77;;;11.43;;
72275;SDS011;61204;49.980;8.358;2024-01-30T13:34:33;16.80;;;12.43;;
72275;SDS011;61204;49.980;8.358;2024-01-30T13:37:01;16.30;;;10.85;;
72275;SDS011;61204;49.980;8.358;2024-01-30T13:39:26;15.85;;;12.07;;
72275;SDS011;61204;49.980;8.358;2024-01-30T13:41:54;17.33;;;12.57;;
72275;SDS011;61204;49.980;8.358;2024-01-30T13:44:19;16.63;;;12.23;;
72275;SDS011;61204;49.980;8.358;2024-01-30T13:46:45;17.33;;;11.45;;
72275;SDS011;61204;49.980;8.358;2024-01-30T13:49:12;18.15;;;12.48;;
72275;SDS011;61204;49.980;8.358;2024-01-30T13:51:37;22.40;;;12.65;;
72275;SDS011;61204;49.980;8.358;2024-01-30T13:54:03;16.48;;;13.77;;
72275;SDS011;61204;49.980;8.358;2024-01-30T13:56:28;15.00;;;11.75;;
72275;SDS011;61204;49.980;8.358;2024-01-30T13:58:57;19.52;;;12.55;;
72275;SDS011;61204;49.980;8.358;2024-01-30T14:01:25;17.90;;;12.80;;
72275;SDS011;61204;49.980;8.358;2024-01-30T14:03:51;20.23;;;12.98;;
72275;SDS011;61204;49.980;8.358;2024-01-30T14:06:16;27.80;;;13.13;;
72275;SDS011;61204;49.980;8.358;2024-01-30T14:08:42;16.00;;;12.40;;
72275;SDS011;61204;49.980;8.358;2024-01-30T14:11:10;17.13;;;13.10;;
72275;SDS011;61204;49.980;8.358;2024-01-30T14:13:38;18.30;;;12.77;;
72275;SDS011;61204;49.980;8.358;2024-01-30T14:16:05;15.25;;;12.32;;
72275;SDS011;61204;49.980;8.358;2024-01-30T14:18:32;17.75;;;12.15;;